Other Surface Observations
Issued by NWS Missoula, MT

Home | Current Version | Previous Version | Text Only | Print | Product List | Glossary On
Versions: 1 2 3 4 5 6 7 8 9 10 11 12 13 14 15 16 17 18 19 20 21 22 23 24 25 26 27 28 29 30 31 32 33 34 35 36 37 38 39 40 41 42 43 44 45 46 47 48 49 50
000
SXUS55 KMSO 011103
OSOMSO
MONTANA AWOS SUMMARY
NATIONAL WEATHER SERVICE MISSOULA MT
503 AM MDT SUN MAY 1 2016

Montana AWOS Reports

SCOBEY      |K9S2 011055Z AUTO 00000KT 25SM M02/M07 A3030 RMK AO1 T10161066
EKALAKA     |K97M 011055Z AUTO 14004KT 40SM 01/M04 A3026 RMK AO1 T00061043




USA.gov is the U.S. government's official web portal to all federal, state and local government web resources and services.